sensor_id;sensor_type;location;lat;lon;timestamp;P1;durP1;ratioP1;P2;durP2;ratioP2
76986;SDS011;65922;50.086;8.598;2024-01-30T00:00:55;7.4;;;20.9;;
76986;SDS011;65922;50.086;8.598;2024-01-30T00:01:55;6;;;16.9;;
76986;SDS011;65922;50.086;8.598;2024-01-30T00:02:56;8.9;;;19.7;;
76986;SDS011;65922;50.086;8.598;2024-01-30T00:03:55;8.7;;;22.7;;
76986;SDS011;65922;50.086;8.598;2024-01-30T00:04:55;7.7;;;20.2;;
76986;SDS011;65922;50.086;8.598;2024-01-30T00:05:55;7.4;;;15.4;;
76986;SDS011;65922;50.086;8.598;2024-01-30T00:06:55;7.1;;;16.5;;
76986;SDS011;65922;50.086;8.598;2024-01-30T00:07:55;8;;;21.9;;
76986;SDS011;65922;50.086;8.598;2024-01-30T00:08:55;8.7;;;16.3;;
76986;SDS011;65922;50.086;8.598;2024-01-30T00:09:55;8;;;20.2;;
76986;SDS011;65922;50.086;8.598;2024-01-30T00:10:55;6.5;;;12.1;;
76986;SDS011;65922;50.086;8.598;2024-01-30T00:11:56;6.6;;;17.1;;
76986;SDS011;65922;50.086;8.598;2024-01-30T00:12:55;9.2;;;19.9;;
76986;SDS011;65922;50.086;8.598;2024-01-30T00:13:55;8.7;;;16.2;;
76986;SDS011;65922;50.086;8.598;2024-01-30T00:14:55;6.4;;;17.1;;
76986;SDS011;65922;50.086;8.598;2024-01-30T00:15:55;7;;;14.2;;
76986;SDS011;65922;50.086;8.598;2024-01-30T00:16:55;7.4;;;12.3;;
76986;SDS011;65922;50.086;8.598;2024-01-30T00:17:55;7.4;;;17.5;;
76986;SDS011;65922;50.086;8.598;2024-01-30T00:18:55;8.6;;;18.5;;
76986;SDS011;65922;50.086;8.598;2024-01-30T00:19:55;8;;;15.9;;
76986;SDS011;65922;50.086;8.598;2024-01-30T00:20:55;8.1;;;20.1;;
76986;SDS011;65922;50.086;8.598;2024-01-30T00:21:55;6.6;;;13.9;;
76986;SDS011;65922;50.086;8.598;2024-01-30T00:22:55;5.9;;;14.5;;
76986;SDS011;65922;50.086;8.598;2024-01-30T00:23:55;6.5;;;15.7;;
76986;SDS011;65922;50.086;8.598;2024-01-30T00:24:55;8.8;;;19.4;;
76986;SDS011;65922;50.086;8.598;2024-01-30T00:25:55;8.1;;;14.2;;
76986;SDS011;65922;50.086;8.598;2024-01-30T00:26:55;7.8;;;18;;
76986;SDS011;65922;50.086;8.598;2024-01-30T00:27:56;8.9;;;14.5;;
76986;SDS011;65922;50.086;8.598;2024-01-30T00:28:55;8.5;;;19.5;;
76986;SDS011;65922;50.086;8.598;2024-01-30T00:29:55;7.5;;;14.1;;
76986;SDS011;65922;50.086;8.598;2024-01-30T00:30:55;7.9;;;14.7;;
76986;SDS011;65922;50.086;8.598;2024-01-30T00:31:55;8.8;;;19.3;;
76986;SDS011;65922;50.086;8.598;2024-01-30T00:32:55;7.7;;;14.8;;
76986;SDS011;65922;50.086;8.598;2024-01-30T00:33:55;6.8;;;16.6;;
76986;SDS011;65922;50.086;8.598;2024-01-30T00:34:55;9;;;16.3;;
76986;SDS011;65922;50.086;8.598;2024-01-30T00:35:55;7;;;18.6;;
76986;SDS011;65922;50.086;8.598;2024-01-30T00:36:55;6.8;;;12.9;;
76986;SDS011;65922;50.086;8.598;2024-01-30T00:37:55;8.5;;;13.8;;
76986;SDS011;65922;50.086;8.598;2024-01-30T00:38:55;7.5;;;15.7;;
76986;SDS011;65922;50.086;8.598;2024-01-30T00:39:55;8.7;;;19;;
76986;SDS011;65922;50.086;8.598;2024-01-30T00:40:55;7.3;;;15.2;;
76986;SDS011;65922;50.086;8.598;2024-01-30T00:41:55;6.2;;;16.8;;
76986;SDS011;65922;50.086;8.598;2024-01-30T00:42:55;7.1;;;19.5;;
76986;SDS011;65922;50.086;8.598;2024-01-30T00:43:55;6.3;;;14.2;;
76986;SDS011;65922;50.086;8.598;2024-01-30T00:44:55;8.1;;;20.9;;
76986;SDS011;65922;50.086;8.598;2024-01-30T00:45:55;7.6;;;20.6;;
76986;SDS011;65922;50.086;8.598;2024-01-30T00:46:55;7.3;;;17.4;;
76986;SDS011;65922;50.086;8.598;2024-01-30T00:47:55;7.8;;;16.7;;
76986;SDS011;65922;50.086;8.598;2024-01-30T00:48:55;5.8;;;17.2;;
76986;SDS011;65922;50.086;8.598;2024-01-30T00:49:55;5.4;;;11.2;;
76986;SDS011;65922;50.086;8.598;2024-01-30T00:50:56;7.7;;;15.2;;
76986;SDS011;65922;50.086;8.598;2024-01-30T00:51:55;7.5;;;17.8;;
76986;SDS011;65922;50.086;8.598;2024-01-30T00:52:55;7.6;;;18.2;;
76986;SDS011;65922;50.086;8.598;2024-01-30T00:53:55;7.4;;;14.8;;
76986;SDS011;65922;50.086;8.598;2024-01-30T00:54:55;7.9;;;25.5;;
76986;SDS011;65922;50.086;8.598;2024-01-30T00:55:55;7.2;;;19.4;;
76986;SDS011;65922;50.086;8.598;2024-01-30T00:56:55;7.8;;;18;;
76986;SDS011;65922;50.086;8.598;2024-01-30T00:57:55;7.7;;;22.2;;
76986;SDS011;65922;50.086;8.598;2024-01-30T00:58:55;9.5;;;14.2;;
76986;SDS011;65922;50.086;8.598;2024-01-30T00:59:55;8.6;;;15.5;;
76986;SDS011;65922;50.086;8.598;2024-01-30T01:00:55;8.4;;;18.6;;
76986;SDS011;65922;50.086;8.598;2024-01-30T01:01:55;7.9;;;14;;
76986;SDS011;65922;50.086;8.598;2024-01-30T01:02:55;7.7;;;14.3;;
76986;SDS011;65922;50.086;8.598;2024-01-30T01:03:55;8.1;;;20.4;;
76986;SDS011;65922;50.086;8.598;2024-01-30T01:04:55;7.3;;;17.2;;
76986;SDS011;65922;50.086;8.598;2024-01-30T01:05:55;8.5;;;16.5;;
76986;SDS011;65922;50.086;8.598;2024-01-30T01:06:55;8.1;;;16.9;;
76986;SDS011;65922;50.086;8.598;2024-01-30T01:07:55;8.5;;;14.7;;
76986;SDS011;65922;50.086;8.598;2024-01-30T01:08:55;7.4;;;16.3;;
76986;SDS011;65922;50.086;8.598;2024-01-30T01:09:55;7.8;;;25.1;;
76986;SDS011;65922;50.086;8.598;2024-01-30T01:10:55;8.4;;;16.3;;
76986;SDS011;65922;50.086;8.598;2024-01-30T01:11:55;10.3;;;20.7;;
76986;SDS011;65922;50.086;8.598;2024-01-30T01:12:55;8.1;;;18.2;;
76986;SDS011;65922;50.086;8.598;2024-01-30T01:13:55;7.9;;;11.4;;
76986;SDS011;65922;50.086;8.598;2024-01-30T01:14:55;6.8;;;23.3;;
76986;SDS011;65922;50.086;8.598;2024-01-30T01:15:55;7.2;;;13.5;;
76986;SDS011;65922;50.086;8.598;2024-01-30T01:16:55;5.8;;;15.1;;
76986;SDS011;65922;50.086;8.598;2024-01-30T01:17:55;8.3;;;17.8;;
76986;SDS011;65922;50.086;8.598;2024-01-30T01:18:55;8.4;;;13.8;;
76986;SDS011;65922;50.086;8.598;2024-01-30T01:19:55;6.5;;;12.7;;
76986;SDS011;65922;50.086;8.598;2024-01-30T01:20:55;7.2;;;16.2;;
76986;SDS011;65922;50.086;8.598;2024-01-30T01:21:55;7.4;;;15.3;;
76986;SDS011;65922;50.086;8.598;2024-01-30T01:22:55;7.9;;;19.6;;
76986;SDS011;65922;50.086;8.598;2024-01-30T01:23:55;8.4;;;15.9;;
76986;SDS011;65922;50.086;8.598;2024-01-30T01:24:55;8.9;;;19.2;;
76986;SDS011;65922;50.086;8.598;2024-01-30T01:25:55;8.3;;;18.2;;
76986;SDS011;65922;50.086;8.598;2024-01-30T01:26:55;7.8;;;16.3;;
76986;SDS011;65922;50.086;8.598;2024-01-30T01:27:55;7.4;;;19.5;;
76986;SDS011;65922;50.086;8.598;2024-01-30T01:28:55;9.3;;;21.1;;
76986;SDS011;65922;50.086;8.598;2024-01-30T01:29:55;8;;;12.5;;
76986;SDS011;65922;50.086;8.598;2024-01-30T01:30:55;7.3;;;16.7;;
76986;SDS011;65922;50.086;8.598;2024-01-30T01:31:55;6.8;;;13.1;;
76986;SDS011;65922;50.086;8.598;2024-01-30T01:32:55;9;;;16.6;;
76986;SDS011;65922;50.086;8.598;2024-01-30T01:33:55;7.4;;;24.7;;
76986;SDS011;65922;50.086;8.598;2024-01-30T01:34:55;7.6;;;18.1;;
76986;SDS011;65922;50.086;8.598;2024-01-30T01:35:55;9.6;;;20.4;;
76986;SDS011;65922;50.086;8.598;2024-01-30T01:36:55;6.7;;;11.5;;
76986;SDS011;65922;50.086;8.598;2024-01-30T01:37:55;10.5;;;17.7;;
76986;SDS011;65922;50.086;8.598;2024-01-30T01:38:55;7.9;;;17;;
76986;SDS011;65922;50.086;8.598;2024-01-30T01:39:55;8.1;;;14.5;;
76986;SDS011;65922;50.086;8.598;2024-01-30T01:40:55;9.7;;;18.8;;
76986;SDS011;65922;50.086;8.598;2024-01-30T01:41:55;7.6;;;16.7;;
76986;SDS011;65922;50.086;8.598;2024-01-30T01:42:55;7.8;;;22.7;;
76986;SDS011;65922;50.086;8.598;2024-01-30T01:43:55;6.6;;;17.8;;
76986;SDS011;65922;50.086;8.598;2024-01-30T01:44:55;8.9;;;15.2;;
76986;SDS011;65922;50.086;8.598;2024-01-30T01:45:55;7.6;;;17.7;;
76986;SDS011;65922;50.086;8.598;2024-01-30T01:46:55;7.1;;;13.3;;
76986;SDS011;65922;50.086;8.598;2024-01-30T01:47:55;9.3;;;16.1;;
76986;SDS011;65922;50.086;8.598;2024-01-30T01:48:55;6.9;;;16.9;;
76986;SDS011;65922;50.086;8.598;2024-01-30T01:49:55;8.9;;;24.7;;
76986;SDS011;65922;50.086;8.598;2024-01-30T01:50:55;6.7;;;14.3;;
76986;SDS011;65922;50.086;8.598;2024-01-30T01:51:55;8.4;;;27.6;;
76986;SDS011;65922;50.086;8.598;2024-01-30T01:52:55;7.9;;;13.6;;
76986;SDS011;65922;50.086;8.598;2024-01-30T01:53:55;8.8;;;13.9;;
76986;SDS011;65922;50.086;8.598;2024-01-30T01:54:55;7.7;;;17.9;;
76986;SDS011;65922;50.086;8.598;2024-01-30T01:55:55;8.6;;;17.3;;
76986;SDS011;65922;50.086;8.598;2024-01-30T01:56:55;6.9;;;16.4;;
76986;SDS011;65922;50.086;8.598;2024-01-30T01:57:55;6.7;;;12.6;;
76986;SDS011;65922;50.086;8.598;2024-01-30T01:58:55;6.5;;;15.7;;
76986;SDS011;65922;50.086;8.598;2024-01-30T01:59:55;7.7;;;11.7;;
76986;SDS011;65922;50.086;8.598;2024-01-30T02:00:56;6.4;;;13.1;;
76986;SDS011;65922;50.086;8.598;2024-01-30T02:01:55;7.9;;;17.7;;
76986;SDS011;65922;50.086;8.598;2024-01-30T02:02:55;7.2;;;15.8;;
76986;SDS011;65922;50.086;8.598;2024-01-30T02:03:55;7.1;;;12.8;;
76986;SDS011;65922;50.086;8.598;2024-01-30T02:04:55;7.6;;;13;;
76986;SDS011;65922;50.086;8.598;2024-01-30T02:05:55;6.6;;;11.4;;
76986;SDS011;65922;50.086;8.598;2024-01-30T02:06:55;8.4;;;16.8;;
76986;SDS011;65922;50.086;8.598;2024-01-30T02:07:55;7.8;;;20.8;;
76986;SDS011;65922;50.086;8.598;2024-01-30T02:08:55;8.5;;;20.2;;
76986;SDS011;65922;50.086;8.598;2024-01-30T02:09:55;7.5;;;20.7;;
76986;SDS011;65922;50.086;8.598;2024-01-30T02:10:55;9.1;;;24.1;;
76986;SDS011;65922;50.086;8.598;2024-01-30T02:11:55;8.3;;;15.8;;
76986;SDS011;65922;50.086;8.598;2024-01-30T02:12:55;6;;;21.9;;
76986;SDS011;65922;50.086;8.598;2024-01-30T02:13:55;7.8;;;14.9;;
76986;SDS011;65922;50.086;8.598;2024-01-30T02:14:55;7.7;;;16.6;;
76986;SDS011;65922;50.086;8.598;2024-01-30T02:15:55;6.2;;;14.2;;
76986;SDS011;65922;50.086;8.598;2024-01-30T02:16:55;7.5;;;11.9;;
76986;SDS011;65922;50.086;8.598;2024-01-30T02:17:55;7;;;15.7;;
76986;SDS011;65922;50.086;8.598;2024-01-30T02:18:55;6.5;;;12;;
76986;SDS011;65922;50.086;8.598;2024-01-30T02:19:55;5.6;;;18.2;;
76986;SDS011;65922;50.086;8.598;2024-01-30T02:20:56;8.1;;;18.8;;
76986;SDS011;65922;50.086;8.598;2024-01-30T02:21:55;7.7;;;15.8;;
76986;SDS011;65922;50.086;8.598;2024-01-30T02:22:55;5.9;;;12.1;;
76986;SDS011;65922;50.086;8.598;2024-01-30T02:23:55;6.8;;;17.9;;
76986;SDS011;65922;50.086;8.598;2024-01-30T02:24:55;7.5;;;13.8;;
76986;SDS011;65922;50.086;8.598;2024-01-30T02:25:55;7.8;;;12.9;;
76986;SDS011;65922;50.086;8.598;2024-01-30T02:26:55;8.5;;;14.5;;
76986;SDS011;65922;50.086;8.598;2024-01-30T02:27:55;7.8;;;13.5;;
76986;SDS011;65922;50.086;8.598;2024-01-30T02:28:55;7.5;;;13.5;;
76986;SDS011;65922;50.086;8.598;2024-01-30T02:29:55;6.4;;;13.5;;
76986;SDS011;65922;50.086;8.598;2024-01-30T02:30:55;7.4;;;16.8;;
76986;SDS011;65922;50.086;8.598;2024-01-30T02:31:55;5.7;;;10.5;;
76986;SDS011;65922;50.086;8.598;2024-01-30T02:32:55;8;;;19.6;;
76986;SDS011;65922;50.086;8.598;2024-01-30T02:33:55;6.7;;;15.7;;
76986;SDS011;65922;50.086;8.598;2024-01-30T02:34:55;6.9;;;15.3;;
76986;SDS011;65922;50.086;8.598;2024-01-30T02:35:55;6.5;;;15.7;;
76986;SDS011;65922;50.086;8.598;2024-01-30T02:36:55;7.5;;;15.7;;
76986;SDS011;65922;50.086;8.598;2024-01-30T02:37:55;6.9;;;16.8;;
76986;SDS011;65922;50.086;8.598;2024-01-30T02:38:55;8;;;14.2;;
76986;SDS011;65922;50.086;8.598;2024-01-30T02:39:55;7.9;;;16.7;;
76986;SDS011;65922;50.086;8.598;2024-01-30T02:40:55;7.1;;;18.6;;
76986;SDS011;65922;50.086;8.598;2024-01-30T02:41:55;7.7;;;15;;
76986;SDS011;65922;50.086;8.598;2024-01-30T02:42:55;7;;;14.6;;
76986;SDS011;65922;50.086;8.598;2024-01-30T02:43:55;6.6;;;13.5;;
76986;SDS011;65922;50.086;8.598;2024-01-30T02:44:55;8.3;;;19.5;;
76986;SDS011;65922;50.086;8.598;2024-01-30T02:45:55;6.7;;;14.2;;
76986;SDS011;65922;50.086;8.598;2024-01-30T02:46:55;6.2;;;13.7;;
76986;SDS011;65922;50.086;8.598;2024-01-30T02:47:55;8.4;;;22.9;;
76986;SDS011;65922;50.086;8.598;2024-01-30T02:48:55;5.8;;;11.8;;
76986;SDS011;65922;50.086;8.598;2024-01-30T02:49:55;6.3;;;15.2;;
76986;SDS011;65922;50.086;8.598;2024-01-30T02:50:55;7.2;;;18.5;;
76986;SDS011;65922;50.086;8.598;2024-01-30T02:51:55;6.7;;;14;;
76986;SDS011;65922;50.086;8.598;2024-01-30T02:52:55;7.3;;;17;;
76986;SDS011;65922;50.086;8.598;2024-01-30T02:53:55;6.8;;;13.4;;
76986;SDS011;65922;50.086;8.598;2024-01-30T02:54:55;8.4;;;15.6;;
76986;SDS011;65922;50.086;8.598;2024-01-30T02:55:55;6.8;;;19.5;;
76986;SDS011;65922;50.086;8.598;2024-01-30T02:56:55;7.3;;;14.4;;
76986;SDS011;65922;50.086;8.598;2024-01-30T02:57:55;6.9;;;16.9;;
76986;SDS011;65922;50.086;8.598;2024-01-30T02:58:55;6.3;;;12.4;;
76986;SDS011;65922;50.086;8.598;2024-01-30T02:59:55;7.9;;;20.7;;
76986;SDS011;65922;50.086;8.598;2024-01-30T03:00:55;5.5;;;11.9;;
76986;SDS011;65922;50.086;8.598;2024-01-30T03:01:55;6.2;;;11.8;;
76986;SDS011;65922;50.086;8.598;2024-01-30T03:02:55;7.3;;;10.7;;
76986;SDS011;65922;50.086;8.598;2024-01-30T03:03:55;7.2;;;17.5;;
76986;SDS011;65922;50.086;8.598;2024-01-30T03:04:55;5.9;;;12.5;;
76986;SDS011;65922;50.086;8.598;2024-01-30T03:05:55;7.5;;;14.2;;
76986;SDS011;65922;50.086;8.598;2024-01-30T03:06:55;7.6;;;15.9;;
76986;SDS011;65922;50.086;8.598;2024-01-30T03:07:55;6.8;;;16.3;;
76986;SDS011;65922;50.086;8.598;2024-01-30T03:08:55;6.5;;;21.4;;
76986;SDS011;65922;50.086;8.598;2024-01-30T03:09:55;8.2;;;15.2;;
76986;SDS011;65922;50.086;8.598;2024-01-30T03:10:55;6.3;;;10.2;;
76986;SDS011;65922;50.086;8.598;2024-01-30T03:11:55;6.1;;;13.3;;
76986;SDS011;65922;50.086;8.598;2024-01-30T03:12:55;6.1;;;10.8;;
76986;SDS011;65922;50.086;8.598;2024-01-30T03:13:55;5.3;;;13.3;;
76986;SDS011;65922;50.086;8.598;2024-01-30T03:14:55;5.2;;;10.8;;
76986;SDS011;65922;50.086;8.598;2024-01-30T03:15:55;7.6;;;16.6;;
76986;SDS011;65922;50.086;8.598;2024-01-30T03:16:55;6.3;;;17;;
76986;SDS011;65922;50.086;8.598;2024-01-30T03:17:55;5.2;;;9.2;;
76986;SDS011;65922;50.086;8.598;2024-01-30T03:18:56;6.7;;;14.4;;
76986;SDS011;65922;50.086;8.598;2024-01-30T03:19:55;6.4;;;17.1;;
76986;SDS011;65922;50.086;8.598;2024-01-30T03:20:59;6.4;;;13.6;;
76986;SDS011;65922;50.086;8.598;2024-01-30T03:21:55;6.4;;;13.4;;
76986;SDS011;65922;50.086;8.598;2024-01-30T03:22:57;6.2;;;14.8;;
76986;SDS011;65922;50.086;8.598;2024-01-30T03:23:55;7.3;;;18.4;;
76986;SDS011;65922;50.086;8.598;2024-01-30T03:24:55;5.4;;;9.1;;
76986;SDS011;65922;50.086;8.598;2024-01-30T03:25:55;4.7;;;8.7;;
76986;SDS011;65922;50.086;8.598;2024-01-30T03:26:55;5.2;;;8.8;;
76986;SDS011;65922;50.086;8.598;2024-01-30T03:27:55;5.9;;;11.1;;
76986;SDS011;65922;50.086;8.598;2024-01-30T03:28:55;5.5;;;11.8;;
76986;SDS011;65922;50.086;8.598;2024-01-30T03:29:55;5.1;;;16.3;;
76986;SDS011;65922;50.086;8.598;2024-01-30T03:30:55;6.4;;;19.7;;
76986;SDS011;65922;50.086;8.598;2024-01-30T03:31:55;5.7;;;10.6;;
76986;SDS011;65922;50.086;8.598;2024-01-30T03:32:55;4.8;;;8.3;;
76986;SDS011;65922;50.086;8.598;2024-01-30T03:33:55;5.5;;;13.7;;
76986;SDS011;65922;50.086;8.598;2024-01-30T03:34:55;6;;;10.9;;
76986;SDS011;65922;50.086;8.598;2024-01-30T03:35:55;6.1;;;12.8;;
76986;SDS011;65922;50.086;8.598;2024-01-30T03:36:55;6.3;;;14.6;;
76986;SDS011;65922;50.086;8.598;2024-01-30T03:37:55;5.9;;;11.7;;
76986;SDS011;65922;50.086;8.598;2024-01-30T03:38:55;4.9;;;9.1;;
76986;SDS011;65922;50.086;8.598;2024-01-30T03:39:55;5.4;;;11.6;;
76986;SDS011;65922;50.086;8.598;2024-01-30T03:40:55;7;;;12.9;;
76986;SDS011;65922;50.086;8.598;2024-01-30T03:41:55;4.6;;;11.4;;
76986;SDS011;65922;50.086;8.598;2024-01-30T03:42:55;4.4;;;10.1;;
76986;SDS011;65922;50.086;8.598;2024-01-30T03:43:55;5.9;;;11.9;;
76986;SDS011;65922;50.086;8.598;2024-01-30T03:44:56;5.6;;;9.9;;
76986;SDS011;65922;50.086;8.598;2024-01-30T03:45:55;4.9;;;8.9;;
76986;SDS011;65922;50.086;8.598;2024-01-30T03:46:55;5.1;;;10.5;;
76986;SDS011;65922;50.086;8.598;2024-01-30T03:47:55;6.7;;;18.8;;
76986;SDS011;65922;50.086;8.598;2024-01-30T03:48:55;5.4;;;12.9;;
76986;SDS011;65922;50.086;8.598;2024-01-30T03:49:55;5.7;;;8.2;;
76986;SDS011;65922;50.086;8.598;2024-01-30T03:50:55;4.8;;;9.3;;
76986;SDS011;65922;50.086;8.598;2024-01-30T03:51:55;4.5;;;9.8;;
76986;SDS011;65922;50.086;8.598;2024-01-30T03:52:55;5;;;12.1;;
76986;SDS011;65922;50.086;8.598;2024-01-30T03:53:55;5.5;;;13.4;;
76986;SDS011;65922;50.086;8.598;2024-01-30T03:54:55;7;;;12.2;;
76986;SDS011;65922;50.086;8.598;2024-01-30T03:55:55;5.8;;;16.4;;
76986;SDS011;65922;50.086;8.598;2024-01-30T03:56:55;6.5;;;8.9;;
76986;SDS011;65922;50.086;8.598;2024-01-30T03:57:55;5.3;;;18.1;;
76986;SDS011;65922;50.086;8.598;2024-01-30T03:58:55;7.4;;;13;;
76986;SDS011;65922;50.086;8.598;2024-01-30T03:59:55;6.3;;;10.4;;
76986;SDS011;65922;50.086;8.598;2024-01-30T04:00:55;5.7;;;12.8;;
76986;SDS011;65922;50.086;8.598;2024-01-30T04:01:55;4.8;;;12.6;;
76986;SDS011;65922;50.086;8.598;2024-01-30T04:02:55;6.3;;;14.7;;
76986;SDS011;65922;50.086;8.598;2024-01-30T04:03:55;6.7;;;15.4;;
76986;SDS011;65922;50.086;8.598;2024-01-30T04:04:55;5.9;;;11.2;;
76986;SDS011;65922;50.086;8.598;2024-01-30T04:05:55;6.8;;;14.1;;
76986;SDS011;65922;50.086;8.598;2024-01-30T04:06:55;6;;;10.7;;
76986;SDS011;65922;50.086;8.598;2024-01-30T04:07:55;7;;;14.8;;
76986;SDS011;65922;50.086;8.598;2024-01-30T04:08:55;5.6;;;11.3;;
76986;SDS011;65922;50.086;8.598;2024-01-30T04:09:55;5.6;;;18.7;;
76986;SDS011;65922;50.086;8.598;2024-01-30T04:10:55;5.1;;;10.1;;
76986;SDS011;65922;50.086;8.598;2024-01-30T04:11:55;6.1;;;12.6;;
76986;SDS011;65922;50.086;8.598;2024-01-30T04:12:55;7;;;14.7;;
76986;SDS011;65922;50.086;8.598;2024-01-30T04:13:55;5.3;;;13.9;;
76986;SDS011;65922;50.086;8.598;2024-01-30T04:14:55;4.7;;;9.9;;
76986;SDS011;65922;50.086;8.598;2024-01-30T04:15:55;6.2;;;14.8;;
76986;SDS011;65922;50.086;8.598;2024-01-30T04:16:55;5;;;8.7;;
76986;SDS011;65922;50.086;8.598;2024-01-30T04:17:57;6.4;;;15.9;;
76986;SDS011;65922;50.086;8.598;2024-01-30T04:18:55;8;;;12.1;;
76986;SDS011;65922;50.086;8.598;2024-01-30T04:19:55;5.2;;;18.5;;
76986;SDS011;65922;50.086;8.598;2024-01-30T04:20:55;4.6;;;10.5;;
76986;SDS011;65922;50.086;8.598;2024-01-30T04:21:55;6.3;;;15.7;;
76986;SDS011;65922;50.086;8.598;2024-01-30T04:22:55;6.3;;;12.2;;
76986;SDS011;65922;50.086;8.598;2024-01-30T04:23:55;5.7;;;11;;
76986;SDS011;65922;50.086;8.598;2024-01-30T04:24:55;4.8;;;13.7;;
76986;SDS011;65922;50.086;8.598;2024-01-30T04:25:55;5.6;;;11.9;;
76986;SDS011;65922;50.086;8.598;2024-01-30T04:26:55;5;;;15.5;;
76986;SDS011;65922;50.086;8.598;2024-01-30T04:27:55;7;;;13.5;;
76986;SDS011;65922;50.086;8.598;2024-01-30T04:28:55;5.2;;;14.9;;
76986;SDS011;65922;50.086;8.598;2024-01-30T04:29:55;5.8;;;11;;
76986;SDS011;65922;50.086;8.598;2024-01-30T04:30:55;6;;;15.1;;
76986;SDS011;65922;50.086;8.598;2024-01-30T04:31:55;4.6;;;11.6;;
76986;SDS011;65922;50.086;8.598;2024-01-30T04:32:55;5.8;;;15.1;;
76986;SDS011;65922;50.086;8.598;2024-01-30T04:33:55;6.2;;;14;;
76986;SDS011;65922;50.086;8.598;2024-01-30T04:34:55;3.6;;;6.7;;
76986;SDS011;65922;50.086;8.598;2024-01-30T04:35:55;5.3;;;12.8;;
76986;SDS011;65922;50.086;8.598;2024-01-30T04:36:55;3.8;;;8.9;;
76986;SDS011;65922;50.086;8.598;2024-01-30T04:37:55;5.2;;;8.6;;
76986;SDS011;65922;50.086;8.598;2024-01-30T04:38:55;5;;;9;;
76986;SDS011;65922;50.086;8.598;2024-01-30T04:39:55;5.4;;;12.2;;
76986;SDS011;65922;50.086;8.598;2024-01-30T04:40:55;4.3;;;14.6;;
76986;SDS011;65922;50.086;8.598;2024-01-30T04:41:55;5.9;;;11.5;;
76986;SDS011;65922;50.086;8.598;2024-01-30T04:42:55;4.4;;;12;;
76986;SDS011;65922;50.086;8.598;2024-01-30T04:43:55;6.3;;;11.6;;
76986;SDS011;65922;50.086;8.598;2024-01-30T04:44:55;4.4;;;8.8;;
76986;SDS011;65922;50.086;8.598;2024-01-30T04:45:55;5.7;;;10.1;;
76986;SDS011;65922;50.086;8.598;2024-01-30T04:46:55;4.6;;;12.6;;
76986;SDS011;65922;50.086;8.598;2024-01-30T04:47:55;5.4;;;9.4;;
76986;SDS011;65922;50.086;8.598;2024-01-30T04:48:55;5;;;11;;
76986;SDS011;65922;50.086;8.598;2024-01-30T04:49:55;6.3;;;13.1;;
76986;SDS011;65922;50.086;8.598;2024-01-30T04:50:55;4.2;;;12.6;;
76986;SDS011;65922;50.086;8.598;2024-01-30T04:51:55;7.1;;;12.7;;
76986;SDS011;65922;50.086;8.598;2024-01-30T04:52:55;3.6;;;7.2;;
76986;SDS011;65922;50.086;8.598;2024-01-30T04:53:55;4.8;;;12.8;;
76986;SDS011;65922;50.086;8.598;2024-01-30T04:54:55;5.9;;;15.3;;
76986;SDS011;65922;50.086;8.598;2024-01-30T04:55:55;5.6;;;12.7;;
76986;SDS011;65922;50.086;8.598;2024-01-30T04:56:55;4.9;;;10.2;;
76986;SDS011;65922;50.086;8.598;2024-01-30T04:57:55;5.5;;;10.6;;
76986;SDS011;65922;50.086;8.598;2024-01-30T04:58:55;4.4;;;17.8;;
76986;SDS011;65922;50.086;8.598;2024-01-30T04:59:55;3.4;;;6.7;;
76986;SDS011;65922;50.086;8.598;2024-01-30T05:00:55;4.7;;;9.8;;
76986;SDS011;65922;50.086;8.598;2024-01-30T05:01:55;4.3;;;13.1;;
76986;SDS011;65922;50.086;8.598;2024-01-30T05:02:55;5.4;;;13.7;;
76986;SDS011;65922;50.086;8.598;2024-01-30T05:03:55;5;;;10.9;;
76986;SDS011;65922;50.086;8.598;2024-01-30T05:04:55;5;;;15.8;;
76986;SDS011;65922;50.086;8.598;2024-01-30T05:05:55;4.7;;;8.8;;
76986;SDS011;65922;50.086;8.598;2024-01-30T05:06:55;3.5;;;8.8;;
76986;SDS011;65922;50.086;8.598;2024-01-30T05:07:55;5.9;;;12.2;;
76986;SDS011;65922;50.086;8.598;2024-01-30T05:08:55;5.7;;;12.7;;
76986;SDS011;65922;50.086;8.598;2024-01-30T05:09:55;4.4;;;10.8;;
76986;SDS011;65922;50.086;8.598;2024-01-30T05:10:55;4.4;;;6.6;;
76986;SDS011;65922;50.086;8.598;2024-01-30T05:11:55;4.8;;;8.6;;
76986;SDS011;65922;50.086;8.598;2024-01-30T05:12:55;5.1;;;8.6;;
76986;SDS011;65922;50.086;8.598;2024-01-30T05:13:55;4.3;;;10;;
76986;SDS011;65922;50.086;8.598;2024-01-30T05:14:55;5.1;;;12.5;;
76986;SDS011;65922;50.086;8.598;2024-01-30T05:15:55;4.5;;;10.1;;
76986;SDS011;65922;50.086;8.598;2024-01-30T05:16:55;4.5;;;9.4;;
76986;SDS011;65922;50.086;8.598;2024-01-30T05:17:55;5;;;13.3;;
76986;SDS011;65922;50.086;8.598;2024-01-30T05:18:55;4.4;;;8.6;;
76986;SDS011;65922;50.086;8.598;2024-01-30T05:19:55;4.8;;;16.2;;
76986;SDS011;65922;50.086;8.598;2024-01-30T05:20:55;5;;;23.6;;
76986;SDS011;65922;50.086;8.598;2024-01-30T05:21:55;5.4;;;9.5;;
76986;SDS011;65922;50.086;8.598;2024-01-30T05:22:55;4.6;;;9.9;;
76986;SDS011;65922;50.086;8.598;2024-01-30T05:23:55;4.3;;;11.9;;
76986;SDS011;65922;50.086;8.598;2024-01-30T05:24:55;4.3;;;10.5;;
76986;SDS011;65922;50.086;8.598;2024-01-30T05:25:55;3.7;;;11.5;;
76986;SDS011;65922;50.086;8.598;2024-01-30T05:26:55;3.6;;;8;;
76986;SDS011;65922;50.086;8.598;2024-01-30T05:27:55;4.5;;;9.6;;
76986;SDS011;65922;50.086;8.598;2024-01-30T05:28:55;3.9;;;13.2;;
76986;SDS011;65922;50.086;8.598;2024-01-30T05:29:55;3.5;;;6.7;;
76986;SDS011;65922;50.086;8.598;2024-01-30T05:30:55;3.9;;;7.2;;
76986;SDS011;65922;50.086;8.598;2024-01-30T05:31:55;5.7;;;11.2;;
76986;SDS011;65922;50.086;8.598;2024-01-30T05:32:55;5;;;12.3;;
76986;SDS011;65922;50.086;8.598;2024-01-30T05:33:55;4.1;;;10.5;;
76986;SDS011;65922;50.086;8.598;2024-01-30T05:34:55;5.2;;;9.2;;
76986;SDS011;65922;50.086;8.598;2024-01-30T05:35:55;4.8;;;14.8;;
76986;SDS011;65922;50.086;8.598;2024-01-30T05:36:55;3.1;;;7.4;;
76986;SDS011;65922;50.086;8.598;2024-01-30T05:37:55;4.2;;;8.6;;
76986;SDS011;65922;50.086;8.598;2024-01-30T05:38:55;3.3;;;6.4;;
76986;SDS011;65922;50.086;8.598;2024-01-30T05:39:55;4.7;;;12.3;;
76986;SDS011;65922;50.086;8.598;2024-01-30T05:40:55;4.2;;;9.8;;
76986;SDS011;65922;50.086;8.598;2024-01-30T05:41:55;5.4;;;8.4;;
76986;SDS011;65922;50.086;8.598;2024-01-30T05:42:55;4.4;;;10.5;;
76986;SDS011;65922;50.086;8.598;2024-01-30T05:43:55;4.1;;;7.5;;
76986;SDS011;65922;50.086;8.598;2024-01-30T05:44:55;4.3;;;6;;
76986;SDS011;65922;50.086;8.598;2024-01-30T05:45:55;4.5;;;8.2;;
76986;SDS011;65922;50.086;8.598;2024-01-30T05:46:55;3.8;;;12;;
76986;SDS011;65922;50.086;8.598;2024-01-30T05:47:55;3.9;;;10.9;;
76986;SDS011;65922;50.086;8.598;2024-01-30T05:48:55;5;;;14.1;;
76986;SDS011;65922;50.086;8.598;2024-01-30T05:49:55;5.2;;;12.5;;
76986;SDS011;65922;50.086;8.598;2024-01-30T05:50:55;4.6;;;11.3;;
76986;SDS011;65922;50.086;8.598;2024-01-30T05:51:55;4.8;;;13.8;;
76986;SDS011;65922;50.086;8.598;2024-01-30T05:52:55;5.2;;;9.3;;
76986;SDS011;65922;50.086;8.598;2024-01-30T05:53:55;4.9;;;11;;
76986;SDS011;65922;50.086;8.598;2024-01-30T05:54:55;5.2;;;11.6;;
76986;SDS011;65922;50.086;8.598;2024-01-30T05:55:55;4;;;12.6;;
76986;SDS011;65922;50.086;8.598;2024-01-30T05:56:55;4.1;;;12.5;;
76986;SDS011;65922;50.086;8.598;2024-01-30T05:57:55;4.5;;;12.1;;
76986;SDS011;65922;50.086;8.598;2024-01-30T05:58:55;3.8;;;7.6;;
76986;SDS011;65922;50.086;8.598;2024-01-30T05:59:55;5.9;;;14.2;;
76986;SDS011;65922;50.086;8.598;2024-01-30T06:00:55;4;;;6.8;;
76986;SDS011;65922;50.086;8.598;2024-01-30T06:01:55;3.8;;;14.9;;
76986;SDS011;65922;50.086;8.598;2024-01-30T06:02:55;5.2;;;11.8;;
76986;SDS011;65922;50.086;8.598;2024-01-30T06:03:55;4;;;12.5;;
76986;SDS011;65922;50.086;8.598;2024-01-30T06:04:55;5.2;;;10.6;;
76986;SDS011;65922;50.086;8.598;2024-01-30T06:05:55;6.3;;;13.9;;
76986;SDS011;65922;50.086;8.598;2024-01-30T06:06:55;3;;;6.2;;
76986;SDS011;65922;50.086;8.598;2024-01-30T06:07:55;4.9;;;12.7;;
76986;SDS011;65922;50.086;8.598;2024-01-30T06:08:55;5.3;;;12.8;;
76986;SDS011;65922;50.086;8.598;2024-01-30T06:09:55;4.7;;;15.6;;